Glen Ellyn, IL

7:48 AM CST on March 06, 2015 (GMT -0600)
APRSWXNET Wheaton IL US | Change Station
CLOSE
Current Station
Personal Weather Station
Location: Glen Ellyn, IL
Elevation: 790 ft
Nearby Weather Stations

Elev 790 ft 41.88 °N, 88.09 °W | Updated 33 minutes ago

Partly Cloudy
Partly Cloudy
5 °F
Feels Like 5 °F
N
1
Wind Variable Wind from WSW
Gusts 3.0 mph

Today
High -- | Low -- °F
--% Chance of Precip.
Yesterday
High -- | Low -- °F
Precip. -- in
6:19 AM 5:48 PM
Waxing Gibbous, 99% visible
Pressure 30.47 in
Visibility 9.0 miles
Clouds Clear
Windchill 5 °F
Dew Point -2 °F
Humidity 71%
Rainfall in
Snow Depth Not available.
UV 0 out of 12
Pollen .20 out of 12
Air Quality Not available.
Flu Activity Not available.
METAR KDPA 061252Z 17007KT 9SM CLR M17/M20 A3041 RMK AO2 SLP318 T11671200

More Conditions Fewer Conditions

Pressure 30.47 in
Visibility 9.0 miles
Clouds Clear
Windchill 5 °F
Dew Point -2 °F
Humidity 71%
Rainfall in
Snow Depth Not available.
UV 0 out of 12
Pollen .20 out of 12
Air Quality Not available.
Flu Activity Not available.
METAR KDPA 061252Z 17007KT 9SM CLR M17/M20 A3041 RMK AO2 SLP318 T11671200

More Conditions Fewer Conditions

10-Day Weather Forecast

Almanac

Astronomy

Mar. 06, 2015 Rise Set
Actual Time
Civil Twilight
Nautical Twilight
Astronomical Twilight
Moon
Length of Visible Light
Length of Day
Tomorrow will be .
, % of the Moon is Illuminated

Today's Extremes

State Highs State Lows

Community

WunderPhotos

Upload Photos

1,803,266 photos uploaded!

WunderBlogs® & News

Nearby

Air Quality

  Air Quality AQ Index Pollutant
Not available.

Snow Depth

Station Depth Elevation

Earthquake Activity

City Distance Mag. Time & Date
Minimum magnitude displayed is 2.5.

Coastal Water Temperatures

Place Temperature

Nearby Weather Stations